Time,TemperatureF,DewpointF,PressureIn,WindDirection,WindDirectionDegrees,WindSpeedMPH,WindSpeedGustMPH,Humidity,HourlyPrecipIn,Conditions,Clouds,dailyrainin,SoftwareType,DateUTC
2013-03-12 00:03:00,37.0,30.5,30.21,SSW,204,6.0,9.0,77,0.00,,SKC,0.00,VWS V12.07,2013-03-12 07:03:00,
2013-03-12 00:12:00,37.0,31.1,30.20,SSW,204,6.0,11.0,79,0.00,,SKC,0.00,VWS V12.07,2013-03-12 07:12:00,
2013-03-12 00:22:00,36.7,30.8,30.20,SSW,204,7.0,11.0,79,0.00,,SKC,0.00,VWS V12.07,2013-03-12 07:22:00,
2013-03-12 00:32:00,36.5,30.9,30.20,SSW,207,5.0,9.0,80,0.00,,SKC,0.00,VWS V12.07,2013-03-12 07:32:00,
2013-03-12 00:42:00,36.5,30.9,30.21,SSW,212,6.0,9.0,80,0.00,,SKC,0.00,VWS V12.07,2013-03-12 07:42:00,
2013-03-12 00:52:00,36.9,31.6,30.21,SW,222,9.0,10.0,81,0.00,,SKC,0.00,VWS V12.07,2013-03-12 07:52:00,
2013-03-12 01:02:00,37.2,31.9,30.21,SW,218,7.0,9.0,81,0.00,,SKC,0.00,VWS V12.07,2013-03-12 08:02:00,
2013-03-12 01:12:00,37.0,31.7,30.20,SW,218,4.0,9.0,81,0.00,,SKC,0.00,VWS V12.07,2013-03-12 08:12:00,
2013-03-12 01:22:00,36.7,31.4,30.19,SW,217,7.0,9.0,81,0.00,,SKC,0.00,VWS V12.07,2013-03-12 08:22:00,
2013-03-12 01:32:00,37.1,32.1,30.19,SW,223,3.0,9.0,82,0.00,,SKC,0.00,VWS V12.07,2013-03-12 08:32:00,
2013-03-12 01:52:00,37.4,32.1,30.19,SSW,198,10.0,15.0,81,0.00,,SKC,0.00,VWS V12.07,2013-03-12 08:52:00,
2013-03-12 02:12:00,37.4,32.1,30.19,SSW,212,7.0,11.0,81,0.00,,SKC,0.00,VWS V12.07,2013-03-12 09:12:00,
2013-03-12 02:22:00,37.4,32.1,30.16,SSW,206,6.0,11.0,81,0.00,,SKC,0.00,VWS V12.07,2013-03-12 09:22:00,
2013-03-12 02:32:00,37.3,32.3,30.18,SSW,210,7.0,10.0,82,0.00,,SKC,0.00,VWS V12.07,2013-03-12 09:32:00,
2013-03-12 02:42:00,37.7,32.7,30.17,SSW,210,9.0,14.0,82,0.00,,SKC,0.00,VWS V12.07,2013-03-12 09:42:00,
2013-03-12 02:52:00,37.7,32.7,30.18,SSW,209,4.0,14.0,82,0.00,,SKC,0.00,VWS V12.07,2013-03-12 09:52:00,
2013-03-12 03:02:00,37.7,32.7,30.16,SW,222,3.0,12.0,82,0.00,,SKC,0.00,VWS V12.07,2013-03-12 10:02:00,
2013-03-12 03:12:00,37.3,32.3,30.16,SW,220,7.0,12.0,82,0.00,,SKC,0.00,VWS V12.07,2013-03-12 10:12:00,
2013-03-12 03:22:00,37.2,32.2,30.15,SW,219,11.0,16.0,82,0.00,,SKC,0.00,VWS V12.07,2013-03-12 10:22:00,
2013-03-12 03:32:00,37.5,32.5,30.16,SW,215,5.0,16.0,82,0.00,,SKC,0.00,VWS V12.07,2013-03-12 10:32:00,
2013-03-12 03:42:00,37.8,32.8,30.17,SSW,213,9.0,16.0,82,0.00,,SKC,0.00,VWS V12.07,2013-03-12 10:42:00,
2013-03-12 03:52:00,38.4,33.1,30.14,SW,220,11.0,16.0,81,0.00,,SKC,0.00,VWS V12.07,2013-03-12 10:52:00,
2013-03-12 04:02:00,38.7,33.4,30.14,SSW,208,13.0,17.0,81,0.00,,SKC,0.00,VWS V12.07,2013-03-12 11:02:00,
2013-03-12 04:12:00,38.7,32.8,30.14,SSW,202,11.0,20.0,79,0.00,,SKC,0.00,VWS V12.07,2013-03-12 11:12:00,
2013-03-12 04:22:00,38.1,32.2,30.15,SW,215,7.0,20.0,79,0.00,,SKC,0.00,VWS V12.07,2013-03-12 11:22:00,
2013-03-12 04:32:00,38.0,32.4,30.14,SW,219,12.0,15.0,80,0.00,,SKC,0.00,VWS V12.07,2013-03-12 11:32:00,
2013-03-12 04:42:00,38.0,32.4,30.14,SW,219,11.0,19.0,80,0.00,,SKC,0.00,VWS V12.07,2013-03-12 11:42:00,
2013-03-12 04:52:00,38.3,32.7,30.15,SW,219,8.0,20.0,80,0.00,,SKC,0.00,VWS V12.07,2013-03-12 11:52:00,
2013-03-12 05:02:00,37.6,31.7,30.14,SW,226,9.0,15.0,79,0.00,,SKC,0.00,VWS V12.07,2013-03-12 12:02:00,
2013-03-12 05:12:00,37.1,31.5,30.15,SSW,212,14.0,20.0,80,0.00,,SKC,0.00,VWS V12.07,2013-03-12 12:12:00,
2013-03-12 05:32:00,36.6,31.3,30.15,SSW,211,11.0,23.0,81,0.00,,SKC,0.00,VWS V12.07,2013-03-12 12:32:00,
2013-03-12 05:42:00,36.4,31.4,30.14,SW,223,17.0,25.0,82,0.00,,SKC,0.00,VWS V12.07,2013-03-12 12:42:00,
2013-03-12 05:52:00,36.5,31.5,30.14,SW,226,15.0,25.0,82,0.00,,SKC,0.00,VWS V12.07,2013-03-12 12:52:00,
2013-03-12 06:02:00,37.0,32.0,30.13,SW,224,14.0,23.0,82,0.00,,SKC,0.00,VWS V12.07,2013-03-12 13:02:00,
2013-03-12 06:12:00,37.1,32.1,30.14,SW,228,16.0,27.0,82,0.00,,SKC,0.00,VWS V12.07,2013-03-12 13:12:00,
2013-03-12 06:22:00,36.8,32.1,30.12,SW,218,14.0,27.0,83,0.00,,SKC,0.00,VWS V12.07,2013-03-12 13:22:00,
2013-03-12 06:32:00,36.5,31.8,30.12,SW,225,7.0,18.0,83,0.00,,SKC,0.00,VWS V12.07,2013-03-12 13:32:00,
2013-03-12 06:42:00,35.8,31.1,30.13,SW,226,17.0,22.0,83,0.00,,SKC,0.00,VWS V12.07,2013-03-12 13:42:00,
2013-03-12 06:52:00,35.6,31.0,30.12,SW,222,11.0,22.0,83,0.00,,SKC,0.00,VWS V12.07,2013-03-12 13:52:00,
2013-03-12 07:02:00,35.7,31.0,30.11,SSW,195,17.0,27.0,83,0.00,,SKC,0.00,VWS V12.07,2013-03-12 14:02:00,
2013-03-12 07:12:00,36.0,31.4,30.13,SW,235,6.0,32.0,83,0.00,,SKC,0.00,VWS V12.07,2013-03-12 14:12:00,
2013-03-12 07:22:00,36.0,31.4,30.13,WSW,255,2.0,32.0,83,0.00,,SKC,0.00,VWS V12.07,2013-03-12 14:22:00,
2013-03-12 07:32:00,35.7,31.0,30.15,WSW,239,4.0,11.0,83,0.00,,SKC,0.00,VWS V12.07,2013-03-12 14:32:00,
2013-03-12 07:42:00,36.1,31.7,30.14,WSW,245,4.0,13.0,84,0.00,,SKC,0.00,VWS V12.07,2013-03-12 14:42:00,
2013-03-12 07:52:00,36.7,32.6,30.14,WSW,256,6.0,13.0,85,0.00,,SKC,0.00,VWS V12.07,2013-03-12 14:52:00,
2013-03-12 08:02:00,37.0,32.3,30.15,West,261,7.0,15.0,83,0.00,,SKC,0.00,VWS V12.07,2013-03-12 15:02:00,
2013-03-12 08:12:00,37.0,32.3,30.15,SW,230,12.0,16.0,83,0.00,,SKC,0.00,VWS V12.07,2013-03-12 15:12:00,
2013-03-12 08:22:00,37.0,32.0,30.14,SW,223,14.0,20.0,82,0.00,,SKC,0.00,VWS V12.07,2013-03-12 15:22:00,
2013-03-12 08:32:00,37.0,32.0,30.13,SW,228,15.0,24.0,82,0.00,,SKC,0.00,VWS V12.07,2013-03-12 15:32:00,
2013-03-12 08:42:00,37.1,32.1,30.13,SW,223,13.0,24.0,82,0.00,,SKC,0.00,VWS V12.07,2013-03-12 15:42:00,
2013-03-12 08:52:00,36.8,31.5,30.13,SW,229,16.0,25.0,81,0.00,,SKC,0.00,VWS V12.07,2013-03-12 15:52:00,
2013-03-12 09:02:00,37.4,32.1,30.14,SW,231,20.0,25.0,81,0.00,,SKC,0.00,VWS V12.07,2013-03-12 16:02:00,
2013-03-12 09:12:00,38.4,32.8,30.14,SW,219,14.0,25.0,80,0.00,,SKC,0.00,VWS V12.07,2013-03-12 16:12:00,
2013-03-12 10:32:00,43.4,35.3,30.15,SW,226,11.0,16.0,73,0.00,,SKC,0.00,VWS V12.07,2013-03-12 17:32:00,
2013-03-12 10:42:00,44.1,35.7,30.15,SW,225,12.0,17.0,72,0.00,,SKC,0.00,VWS V12.07,2013-03-12 17:42:00,
2013-03-12 10:52:00,44.9,35.7,30.15,SW,227,9.0,19.0,70,0.00,,SKC,0.00,VWS V12.07,2013-03-12 17:52:00,
2013-03-12 11:02:00,45.8,36.6,30.15,SW,232,8.0,14.0,70,0.00,,SKC,0.00,VWS V12.07,2013-03-12 18:02:00,
2013-03-12 11:12:00,46.8,36.8,30.13,SW,222,11.0,19.0,68,0.00,,SKC,0.00,VWS V12.07,2013-03-12 18:12:00,
2013-03-12 11:23:00,47.8,37.0,30.15,SW,230,10.0,19.0,66,0.00,,SKC,0.00,VWS V12.07,2013-03-12 18:23:00,
2013-03-12 11:33:00,48.7,37.1,30.14,SW,232,7.0,13.0,64,0.00,,SKC,0.00,VWS V12.07,2013-03-12 18:33:00,
2013-03-12 11:48:00,49.8,37.3,30.14,WSW,238,3.0,13.0,62,0.00,,SKC,0.00,VWS V12.07,2013-03-12 18:48:00,
2013-03-12 11:57:00,50.1,37.2,30.15,WSW,248,5.0,13.0,61,0.00,,SKC,0.00,VWS V12.07,2013-03-12 18:57:00,
2013-03-12 12:02:00,50.6,37.2,30.14,WSW,248,6.0,7.0,60,0.00,,SKC,0.00,VWS V12.07,2013-03-12 19:02:00,
2013-03-12 12:13:00,51.5,37.2,30.15,SW,227,8.0,9.0,58,0.00,,SKC,0.00,VWS V12.07,2013-03-12 19:13:00,
2013-03-12 12:22:00,51.9,36.7,30.16,SW,223,5.0,10.0,56,0.00,,SKC,0.00,VWS V12.07,2013-03-12 19:22:00,
2013-03-12 12:32:00,52.5,37.3,30.15,WSW,239,8.0,8.0,56,0.00,,SKC,0.00,VWS V12.07,2013-03-12 19:32:00,
2013-03-12 12:42:00,52.9,36.2,30.14,SSW,199,7.0,12.0,53,0.00,,SKC,0.00,VWS V12.07,2013-03-12 19:42:00,
2013-03-12 12:52:00,53.5,36.3,30.14,SSW,207,2.0,12.0,52,0.00,,SKC,0.00,VWS V12.07,2013-03-12 19:52:00,
2013-03-12 13:02:00,54.4,37.2,30.14,SSW,209,1.0,5.0,52,0.00,,SKC,0.00,VWS V12.07,2013-03-12 20:02:00,
2013-03-12 13:12:00,55.3,36.0,30.15,SSW,210,5.0,12.0,48,0.00,,SKC,0.00,VWS V12.07,2013-03-12 20:12:00,
2013-03-12 13:22:00,55.7,35.8,30.14,South,190,9.0,12.0,47,0.00,,SKC,0.00,VWS V12.07,2013-03-12 20:22:00,
2013-03-12 13:32:00,55.7,34.1,30.13,SW,230,5.0,7.0,44,0.00,,SKC,0.00,VWS V12.07,2013-03-12 20:32:00,
2013-03-12 13:42:00,56.2,35.2,30.14,SW,218,4.0,9.0,45,0.00,,SKC,0.00,VWS V12.07,2013-03-12 20:42:00,
2013-03-12 13:52:00,56.3,35.2,30.13,SW,221,5.0,9.0,45,0.00,,SKC,0.00,VWS V12.07,2013-03-12 20:52:00,
2013-03-12 14:02:00,56.4,35.3,30.12,SW,229,2.0,7.0,45,0.00,,SKC,0.00,VWS V12.07,2013-03-12 21:02:00,
2013-03-12 14:12:00,56.3,34.7,30.13,SW,229,2.0,7.0,44,0.00,,SKC,0.00,VWS V12.07,2013-03-12 21:12:00,
2013-03-12 14:22:00,56.7,34.5,30.13,SW,229,2.0,7.0,43,0.00,,SKC,0.00,VWS V12.07,2013-03-12 21:22:00,
2013-03-12 14:32:00,57.1,33.0,30.11,SW,230,2.0,5.0,40,0.00,,SKC,0.00,VWS V12.07,2013-03-12 21:32:00,
2013-03-12 14:42:00,58.1,26.9,30.12,West,280,10.0,10.0,30,0.00,,SKC,0.00,VWS V12.07,2013-03-12 21:42:00,
2013-03-12 14:52:00,58.5,27.2,30.11,SW,235,2.0,11.0,30,0.00,,SKC,0.00,VWS V12.07,2013-03-12 21:52:00,
2013-03-12 15:02:00,58.7,24.8,30.12,WSW,251,5.0,9.0,27,0.00,,SKC,0.00,VWS V12.07,2013-03-12 22:02:00,
2013-03-12 15:14:00,59.5,24.6,30.11,WSW,237,8.0,16.0,26,0.00,,SKC,0.00,VWS V12.07,2013-03-12 22:14:00,
2013-03-12 15:22:00,60.1,23.2,30.11,WSW,249,3.0,18.0,24,0.00,,SKC,0.00,VWS V12.07,2013-03-12 22:22:00,
2013-03-12 15:32:00,60.0,22.1,30.11,SW,221,7.0,15.0,23,0.00,,SKC,0.00,VWS V12.07,2013-03-12 22:32:00,
2013-03-12 15:42:00,59.6,21.8,30.10,West,281,9.0,16.0,23,0.00,,SKC,0.00,VWS V12.07,2013-03-12 22:42:00,
2013-03-12 15:52:00,59.6,21.8,30.10,West,267,9.0,16.0,23,0.00,,SKC,0.00,VWS V12.07,2013-03-12 22:52:00,
2013-03-12 16:02:00,60.5,23.5,30.10,WNW,295,7.0,9.0,24,0.00,,SKC,0.00,VWS V12.07,2013-03-12 23:02:00,
2013-03-12 16:12:00,60.7,22.7,30.10,SW,224,12.0,16.0,23,0.00,,SKC,0.00,VWS V12.07,2013-03-12 23:12:00,
2013-03-12 16:22:00,60.3,20.2,30.12,WSW,253,8.0,16.0,21,0.00,,SKC,0.00,VWS V12.07,2013-03-12 23:22:00,
2013-03-12 16:32:00,61.0,21.9,30.12,West,264,9.0,10.0,22,0.00,,SKC,0.00,VWS V12.07,2013-03-12 23:32:00,
2013-03-12 16:42:00,61.2,21.0,30.10,NNW,327,10.0,14.0,21,0.00,,SKC,0.00,VWS V12.07,2013-03-12 23:42:00,
2013-03-12 16:52:00,60.6,21.6,30.11,NW,315,5.0,15.0,22,0.00,,SKC,0.00,VWS V12.07,2013-03-12 23:52:00,
2013-03-12 17:02:00,59.8,20.9,30.09,WNW,294,12.0,16.0,22,0.00,,SKC,0.00,VWS V12.07,2013-03-13 00:02:00,
2013-03-12 17:12:00,59.5,19.6,30.11,NW,304,7.0,16.0,21,0.00,,SKC,0.00,VWS V12.07,2013-03-13 00:12:00,
2013-03-12 17:22:00,59.0,21.3,30.10,NW,311,5.0,16.0,23,0.00,,SKC,0.00,VWS V12.07,2013-03-13 00:22:00,
2013-03-12 17:42:00,59.9,19.9,30.10,West,267,7.0,18.0,21,0.00,,SKC,0.00,VWS V12.07,2013-03-13 00:42:00,
2013-03-12 17:52:00,60.0,20.0,30.10,West,276,5.0,18.0,21,0.00,,SKC,0.00,VWS V12.07,2013-03-13 00:52:00,
2013-03-12 18:02:00,59.8,20.9,30.10,WNW,288,7.0,14.0,22,0.00,,SKC,0.00,VWS V12.07,2013-03-13 01:02:00,
2013-03-12 18:12:00,59.5,20.6,30.09,WNW,300,7.0,14.0,22,0.00,,SKC,0.00,VWS V12.07,2013-03-13 01:12:00,
2013-03-12 18:22:00,59.3,21.5,30.11,West,273,4.0,14.0,23,0.00,,SKC,0.00,VWS V12.07,2013-03-13 01:22:00,
2013-03-12 18:32:00,58.6,20.9,30.10,West,272,4.0,9.0,23,0.00,,SKC,0.00,VWS V12.07,2013-03-13 01:32:00,
2013-03-12 18:42:00,57.6,21.1,30.11,West,271,7.0,11.0,24,0.00,,SKC,0.00,VWS V12.07,2013-03-13 01:42:00,
2013-03-12 18:52:00,56.9,20.5,30.11,West,260,3.0,12.0,24,0.00,,SKC,0.00,VWS V12.07,2013-03-13 01:52:00,
2013-03-12 19:02:00,56.3,20.0,30.09,WSW,237,7.0,9.0,24,0.00,,SKC,0.00,VWS V12.07,2013-03-13 02:02:00,
2013-03-12 19:12:00,56.1,19.8,30.11,SW,224,9.0,12.0,24,0.00,,SKC,0.00,VWS V12.07,2013-03-13 02:12:00,
2013-03-12 19:22:00,55.7,19.5,30.11,SW,230,3.0,12.0,24,0.00,,SKC,0.00,VWS V12.07,2013-03-13 02:22:00,
2013-03-12 19:32:00,55.1,19.9,30.12,West,260,4.0,9.0,25,0.00,,SKC,0.00,VWS V12.07,2013-03-13 02:32:00,
2013-03-12 19:42:00,54.0,19.0,30.13,West,268,4.0,9.0,25,0.00,,SKC,0.00,VWS V12.07,2013-03-13 02:42:00,
2013-03-12 19:52:00,53.4,19.4,30.12,West,269,6.0,9.0,26,0.00,,SKC,0.00,VWS V12.07,2013-03-13 02:52:00,
2013-03-12 20:02:00,53.4,19.4,30.12,West,269,9.0,11.0,26,0.00,,SKC,0.00,VWS V12.07,2013-03-13 03:02:00,
2013-03-12 20:12:00,53.5,18.6,30.14,West,281,6.0,11.0,25,0.00,,SKC,0.00,VWS V12.07,2013-03-13 03:12:00,
2013-03-12 20:22:00,53.7,19.6,30.12,West,272,7.0,12.0,26,0.00,,SKC,0.00,VWS V12.07,2013-03-13 03:22:00,
2013-03-12 20:32:00,54.0,19.0,30.12,WSW,258,5.0,11.0,25,0.00,,SKC,0.00,VWS V12.07,2013-03-13 03:32:00,
2013-03-12 20:42:00,54.1,18.1,30.13,WSW,238,7.0,12.0,24,0.00,,SKC,0.00,VWS V12.07,2013-03-13 03:42:00,
2013-03-12 20:52:00,53.5,19.5,30.13,SW,219,7.0,12.0,26,0.00,,SKC,0.00,VWS V12.07,2013-03-13 03:52:00,
2013-03-12 21:02:00,52.9,19.9,30.14,SSW,205,8.0,12.0,27,0.00,,SKC,0.00,VWS V12.07,2013-03-13 04:02:00,
2013-03-12 21:22:00,52.9,21.5,30.15,SW,218,5.0,14.0,29,0.00,,SKC,0.00,VWS V12.07,2013-03-13 04:22:00,
2013-03-12 21:32:00,52.5,22.0,30.14,SW,226,4.0,11.0,30,0.00,,SKC,0.00,VWS V12.07,2013-03-13 04:32:00,
2013-03-12 21:42:00,51.9,21.5,30.14,SW,223,11.0,14.0,30,0.00,,SKC,0.00,VWS V12.07,2013-03-13 04:42:00,
2013-03-12 21:52:00,52.1,21.6,30.13,SW,216,13.0,17.0,30,0.00,,SKC,0.00,VWS V12.07,2013-03-13 04:52:00,
2013-03-12 22:02:00,52.2,20.9,30.14,SW,221,15.0,16.0,29,0.00,,SKC,0.00,VWS V12.07,2013-03-13 05:02:00,
2013-03-12 22:12:00,52.2,20.9,30.14,SSW,203,13.0,18.0,29,0.00,,SKC,0.00,VWS V12.07,2013-03-13 05:12:00,
2013-03-12 22:22:00,51.9,21.5,30.14,SSW,205,12.0,19.0,30,0.00,,SKC,0.00,VWS V12.07,2013-03-13 05:22:00,
2013-03-12 22:32:00,51.2,22.4,30.14,SSW,209,9.0,16.0,32,0.00,,SKC,0.00,VWS V12.07,2013-03-13 05:32:00,
2013-03-12 22:42:00,50.9,22.8,30.14,SSW,200,11.0,18.0,33,0.00,,SKC,0.00,VWS V12.07,2013-03-13 05:42:00,
2013-03-12 22:52:00,50.6,22.6,30.14,SSW,193,13.0,18.0,33,0.00,,SKC,0.00,VWS V12.07,2013-03-13 05:52:00,
2013-03-12 23:02:00,50.4,23.1,30.13,SSW,197,7.0,14.0,34,0.00,,SKC,0.00,VWS V12.07,2013-03-13 06:02:00,
2013-03-12 23:12:00,50.2,23.6,30.14,SSW,204,8.0,14.0,35,0.00,,SKC,0.00,VWS V12.07,2013-03-13 06:12:00,
2013-03-12 23:22:00,50.0,24.1,30.14,SSW,198,7.0,16.0,36,0.00,,SKC,0.00,VWS V12.07,2013-03-13 06:22:00,
2013-03-12 23:32:00,49.7,23.9,30.13,SSW,197,10.0,13.0,36,0.00,,SKC,0.00,VWS V12.07,2013-03-13 06:32:00,
2013-03-12 23:42:00,49.5,24.3,30.15,SSW,199,6.0,13.0,37,0.00,,SKC,0.00,VWS V12.07,2013-03-13 06:42:00,
2013-03-12 23:52:00,49.1,25.2,30.15,SSW,196,5.0,13.0,39,0.00,,SKC,0.00,VWS V12.07,2013-03-13 06:52:00,